createdAt,value
2024-04-08T00:01:24.063Z,12.58
2024-04-08T00:03:50.789Z,12.58
2024-04-08T00:06:17.610Z,12.53
2024-04-08T00:08:44.410Z,12.53
2024-04-08T00:11:11.313Z,12.50
2024-04-08T00:13:38.894Z,12.49
2024-04-08T00:16:08.773Z,12.48
2024-04-08T00:18:35.551Z,12.49
2024-04-08T00:21:06.950Z,12.48
2024-04-08T00:23:35.383Z,12.46
2024-04-08T00:26:06.395Z,12.45
2024-04-08T00:28:38.757Z,12.44
2024-04-08T00:31:06.884Z,12.41
2024-04-08T00:33:34.468Z,12.40
2024-04-08T00:36:02.348Z,12.38
2024-04-08T00:38:29.485Z,12.34
2024-04-08T00:40:56.393Z,12.37
2024-04-08T00:43:23.092Z,12.36
2024-04-08T00:45:49.954Z,12.35
2024-04-08T00:48:18.921Z,12.31
2024-04-08T00:50:49.181Z,12.32
2024-04-08T00:53:17.505Z,12.31
2024-04-08T00:55:47.894Z,12.30
2024-04-08T00:58:16.960Z,12.30
2024-04-08T01:00:43.853Z,12.25
2024-04-08T01:03:11.938Z,12.23
2024-04-08T01:05:40.145Z,12.24
2024-04-08T01:08:08.174Z,12.19
2024-04-08T01:10:35.435Z,12.21
2024-04-08T01:13:02.199Z,12.20
2024-04-08T01:15:29.697Z,12.17
2024-04-08T01:17:56.659Z,12.16
2024-04-08T01:20:23.448Z,12.13
2024-04-08T01:22:55.576Z,12.08
2024-04-08T01:25:22.398Z,12.10
2024-04-08T01:27:49.384Z,12.08
2024-04-08T01:30:21.385Z,12.07
2024-04-08T01:32:48.212Z,12.06
2024-04-08T01:35:14.944Z,12.04
2024-04-08T01:37:42.106Z,12.03
2024-04-08T01:40:09.178Z,12.04
2024-04-08T01:42:36.039Z,12.01
2024-04-08T01:45:03.570Z,12.00
2024-04-08T01:47:30.457Z,11.98
2024-04-08T01:49:57.214Z,11.95
2024-04-08T01:52:24.123Z,11.96
2024-04-08T01:54:50.885Z,11.94
2024-04-08T01:57:17.760Z,11.93
2024-04-08T01:59:44.813Z,11.93
2024-04-08T02:02:11.699Z,11.90
2024-04-08T02:04:38.427Z,11.90
2024-04-08T02:07:05.166Z,11.88
2024-04-08T02:09:31.913Z,11.87
2024-04-08T02:11:58.650Z,11.86
2024-04-08T02:14:25.324Z,11.84
2024-04-08T02:16:52.091Z,11.81
2024-04-08T02:19:18.834Z,11.80
2024-04-08T02:21:45.590Z,11.78
2024-04-08T02:24:12.536Z,11.77
2024-04-08T02:26:39.282Z,11.76
2024-04-08T02:29:06.004Z,11.72
2024-04-08T02:31:32.880Z,11.74
2024-04-08T02:33:59.693Z,11.74
2024-04-08T02:36:26.431Z,11.71
2024-04-08T02:38:53.112Z,11.72
2024-04-08T02:41:19.939Z,11.73
2024-04-08T02:43:48.874Z,11.71
2024-04-08T02:46:15.641Z,11.72
2024-04-08T02:48:43.407Z,11.70
2024-04-08T02:51:10.149Z,11.71
2024-04-08T02:53:37.818Z,11.69
2024-04-08T02:56:08.161Z,11.69
2024-04-08T02:58:35.008Z,11.70
2024-04-08T03:01:10.655Z,11.67
2024-04-08T03:03:38.213Z,11.68
2024-04-08T03:06:14.965Z,11.68
2024-04-08T03:08:43.167Z,11.69
2024-04-08T03:11:10.612Z,11.68
2024-04-08T03:13:38.389Z,11.68
2024-04-08T03:16:05.867Z,11.68
2024-04-08T03:18:32.914Z,11.66
2024-04-08T03:21:02.621Z,11.65
2024-04-08T03:23:29.644Z,11.63
2024-04-08T03:26:10.676Z,11.60
2024-04-08T03:28:37.471Z,11.57
2024-04-08T03:31:14.499Z,11.54
2024-04-08T03:33:41.267Z,11.54
2024-04-08T03:36:12.418Z,11.51
2024-04-08T03:38:39.301Z,11.51
2024-04-08T03:41:07.352Z,11.48
2024-04-08T03:43:34.370Z,11.46
2024-04-08T03:46:01.786Z,11.45
2024-04-08T03:48:28.892Z,11.42
2024-04-08T03:50:55.622Z,11.38
2024-04-08T03:53:23.380Z,11.40
2024-04-08T03:55:50.083Z,11.36
2024-04-08T03:58:16.856Z,11.34
2024-04-08T04:00:43.568Z,11.34
2024-04-08T04:03:11.080Z,11.29
2024-04-08T04:05:38.039Z,11.30
2024-04-08T04:08:05.141Z,11.25
2024-04-08T04:10:31.907Z,11.25
2024-04-08T04:12:58.642Z,11.23
2024-04-08T04:15:25.336Z,11.22
2024-04-08T04:17:52.159Z,11.20
2024-04-08T04:20:25.668Z,11.20
2024-04-08T04:22:52.457Z,11.17
2024-04-08T04:25:19.410Z,11.20
2024-04-08T04:27:46.159Z,11.18
2024-04-08T04:30:12.985Z,11.20
2024-04-08T04:32:41.508Z,11.23
2024-04-08T04:35:08.334Z,11.23
2024-04-08T04:37:35.041Z,11.23
2024-04-08T04:40:01.971Z,11.24
2024-04-08T04:42:28.893Z,11.24
2024-04-08T04:44:55.682Z,11.25
2024-04-08T04:47:22.461Z,11.23
2024-04-08T04:49:49.185Z,11.26
2024-04-08T04:52:15.922Z,11.26
2024-04-08T04:54:42.683Z,11.25
2024-04-08T04:57:09.500Z,11.26
2024-04-08T04:59:36.277Z,11.26
2024-04-08T05:02:03.260Z,11.26
2024-04-08T05:04:32.892Z,11.25
2024-04-08T05:06:59.711Z,11.27
2024-04-08T05:09:26.484Z,11.26
2024-04-08T05:11:54.777Z,11.26
2024-04-08T05:14:21.601Z,11.25
2024-04-08T05:16:51.185Z,11.22
2024-04-08T05:19:18.143Z,11.25
2024-04-08T05:21:45.117Z,11.23
2024-04-08T05:24:11.934Z,11.23
2024-04-08T05:26:39.144Z,11.21
2024-04-08T05:29:06.008Z,11.21
2024-04-08T05:31:32.750Z,11.21
2024-04-08T05:33:59.451Z,11.20
2024-04-08T05:36:26.199Z,11.21
2024-04-08T05:38:52.919Z,11.22
2024-04-08T05:41:20.559Z,11.21
2024-04-08T05:43:47.266Z,11.21
2024-04-08T05:46:14.181Z,11.19
2024-04-08T05:48:41.124Z,11.15
2024-04-08T05:51:08.934Z,11.19
2024-04-08T05:53:35.677Z,11.16
2024-04-08T05:56:02.682Z,11.17
2024-04-08T05:58:29.385Z,11.18
2024-04-08T06:00:56.106Z,11.21
2024-04-08T06:03:23.748Z,11.21
2024-04-08T06:05:50.515Z,11.25
2024-04-08T06:08:17.506Z,11.26
2024-04-08T06:10:51.636Z,11.28
2024-04-08T06:13:18.414Z,11.30
2024-04-08T06:15:45.190Z,11.33
2024-04-08T06:18:12.140Z,11.36
2024-04-08T06:20:39.028Z,11.38
2024-04-08T06:23:05.792Z,11.41
2024-04-08T06:25:34.277Z,11.46
2024-04-08T06:28:01.084Z,11.49
2024-04-08T06:30:27.864Z,11.57
2024-04-08T06:32:54.727Z,11.62
2024-04-08T06:35:21.544Z,11.68
2024-04-08T06:37:48.333Z,11.72
2024-04-08T06:40:15.159Z,11.77
2024-04-08T06:42:41.956Z,11.81
2024-04-08T06:45:08.710Z,11.85
2024-04-08T06:47:35.622Z,11.90
2024-04-08T06:50:02.488Z,11.95
2024-04-08T06:52:29.316Z,12.01
2024-04-08T06:54:58.846Z,12.07
2024-04-08T06:57:26.696Z,12.11
2024-04-08T06:59:53.619Z,12.18
2024-04-08T07:02:20.548Z,12.24
2024-04-08T07:04:47.281Z,12.27
2024-04-08T07:07:14.278Z,12.32
2024-04-08T07:09:41.019Z,12.38
2024-04-08T07:12:08.550Z,12.39
2024-04-08T07:14:35.478Z,12.48
2024-04-08T07:17:02.421Z,12.54
2024-04-08T07:19:29.193Z,12.62
2024-04-08T07:21:56.827Z,12.67
2024-04-08T07:24:23.949Z,12.71
2024-04-08T07:26:50.774Z,12.76
2024-04-08T07:29:17.590Z,12.81
2024-04-08T07:31:45.794Z,12.88
2024-04-08T07:34:12.752Z,12.93
2024-04-08T07:36:39.543Z,12.96
2024-04-08T07:39:11.633Z,12.99
2024-04-08T07:41:39.519Z,12.99
2024-04-08T07:44:06.343Z,13.01
2024-04-08T07:46:33.313Z,13.04
2024-04-08T07:49:00.410Z,13.06
2024-04-08T07:51:27.224Z,13.10
2024-04-08T07:53:54.185Z,13.14
2024-04-08T07:56:21.579Z,13.21
2024-04-08T07:58:48.675Z,13.26
2024-04-08T08:01:15.720Z,13.31
2024-04-08T08:03:42.598Z,13.36
2024-04-08T08:06:10.005Z,13.39
2024-04-08T08:08:36.876Z,13.45
2024-04-08T08:11:06.535Z,13.50
2024-04-08T08:13:33.974Z,13.53
2024-04-08T08:16:01.715Z,13.58
2024-04-08T08:18:28.675Z,13.66
2024-04-08T08:20:55.883Z,13.67
2024-04-08T08:23:22.722Z,13.74
2024-04-08T08:25:53.739Z,13.79
2024-04-08T08:28:21.386Z,13.86
2024-04-08T08:30:48.243Z,13.92
2024-04-08T08:33:15.084Z,14.01
2024-04-08T08:35:42.138Z,14.10
2024-04-08T08:38:08.940Z,14.15
2024-04-08T08:40:45.345Z,14.20
2024-04-08T08:43:12.872Z,14.32
2024-04-08T08:45:47.749Z,14.42
2024-04-08T08:48:15.686Z,14.53
2024-04-08T08:50:43.901Z,14.61
2024-04-08T08:53:10.917Z,14.72
2024-04-08T08:55:38.403Z,14.84
2024-04-08T08:58:07.801Z,14.98
2024-04-08T09:00:39.402Z,15.12
2024-04-08T09:03:14.435Z,15.25
2024-04-08T09:05:41.322Z,15.40
2024-04-08T09:08:08.304Z,15.51
2024-04-08T09:10:49.131Z,15.65
2024-04-08T09:13:23.292Z,15.79
2024-04-08T09:15:53.900Z,15.94
2024-04-08T09:18:22.516Z,16.08
2024-04-08T09:20:49.564Z,16.23
2024-04-08T09:23:16.933Z,16.32
2024-04-08T09:25:43.705Z,16.46
2024-04-08T09:28:12.610Z,16.55
2024-04-08T09:30:40.341Z,16.66
2024-04-08T09:33:11.116Z,16.73
2024-04-08T09:35:43.167Z,16.86
2024-04-08T09:38:12.293Z,16.96
2024-04-08T09:40:40.810Z,17.04
2024-04-08T09:43:11.367Z,17.14
2024-04-08T09:45:41.308Z,17.24
2024-04-08T09:48:13.659Z,17.34
2024-04-08T09:50:43.778Z,17.45
2024-04-08T09:53:11.441Z,17.55
2024-04-08T09:55:45.412Z,17.61
2024-04-08T09:58:18.979Z,17.74
2024-04-08T10:00:46.780Z,17.86
2024-04-08T10:03:16.752Z,17.99
2024-04-08T10:05:44.758Z,18.21
2024-04-08T10:08:13.126Z,18.38
2024-04-08T10:10:40.268Z,18.55
2024-04-08T10:13:10.545Z,18.70
2024-04-08T10:15:37.954Z,18.83
2024-04-08T10:18:06.793Z,18.96
2024-04-08T10:20:33.909Z,19.14
2024-04-08T10:23:00.776Z,19.32
2024-04-08T10:25:44.666Z,19.50
2024-04-08T10:28:17.738Z,19.63
2024-04-08T10:30:46.208Z,19.76
2024-04-08T10:33:13.150Z,19.90
2024-04-08T10:35:40.910Z,20.04
2024-04-08T10:38:08.588Z,20.18
2024-04-08T10:40:36.388Z,20.31
2024-04-08T10:43:03.171Z,20.43
2024-04-08T10:45:29.936Z,20.52
2024-04-08T10:48:03.247Z,20.54
2024-04-08T10:50:34.132Z,20.55
2024-04-08T10:53:02.829Z,20.57
2024-04-08T10:55:30.091Z,20.62
2024-04-08T10:57:57.059Z,20.56
2024-04-08T11:00:24.143Z,20.52
2024-04-08T11:02:51.625Z,20.53
2024-04-08T11:05:18.995Z,20.54
2024-04-08T11:07:48.297Z,20.59
2024-04-08T11:10:17.073Z,20.54
2024-04-08T11:12:45.197Z,20.53
2024-04-08T11:15:14.621Z,20.59
2024-04-08T11:17:41.912Z,20.76
2024-04-08T11:20:14.270Z,20.95
2024-04-08T11:22:41.198Z,21.16
2024-04-08T11:25:16.102Z,21.28
2024-04-08T11:27:44.912Z,21.38
2024-04-08T11:30:15.450Z,21.35
2024-04-08T11:32:42.608Z,21.36
2024-04-08T11:35:10.036Z,21.37
2024-04-08T11:37:37.357Z,21.33
2024-04-08T11:40:07.967Z,21.24
2024-04-08T11:42:35.577Z,21.16
2024-04-08T11:45:08.795Z,21.05
2024-04-08T11:47:37.909Z,20.90
2024-04-08T11:50:08.495Z,20.84
2024-04-08T11:52:35.947Z,20.75
2024-04-08T11:55:05.742Z,20.64
2024-04-08T11:57:33.122Z,20.58
2024-04-08T11:59:59.862Z,20.53
2024-04-08T12:02:26.698Z,20.53
2024-04-08T12:04:53.851Z,20.55
2024-04-08T12:07:21.126Z,20.54
2024-04-08T12:09:47.893Z,20.53
2024-04-08T12:12:15.100Z,20.53
2024-04-08T12:14:42.588Z,20.50
2024-04-08T12:17:10.453Z,20.46
2024-04-08T12:19:37.241Z,20.43
2024-04-08T12:22:04.145Z,20.35
2024-04-08T12:24:31.093Z,20.33
2024-04-08T12:26:58.374Z,20.31
2024-04-08T12:29:25.297Z,20.29
2024-04-08T12:31:52.344Z,20.29
2024-04-08T12:34:19.042Z,20.32
2024-04-08T12:36:46.078Z,20.30
2024-04-08T12:39:14.624Z,20.30
2024-04-08T12:41:41.862Z,20.32
2024-04-08T12:44:10.555Z,20.33
2024-04-08T12:46:37.381Z,20.31
2024-04-08T12:49:04.521Z,20.29
2024-04-08T12:51:31.537Z,20.26
2024-04-08T12:53:58.417Z,20.21
2024-04-08T12:56:26.151Z,20.18
2024-04-08T12:59:03.599Z,20.18
2024-04-08T13:01:31.258Z,20.12
2024-04-08T13:03:58.081Z,20.08
2024-04-08T13:06:25.213Z,20.10
2024-04-08T13:08:52.419Z,20.11
2024-04-08T13:11:20.081Z,20.15
2024-04-08T13:13:48.905Z,20.22
2024-04-08T13:16:16.496Z,20.30
2024-04-08T13:18:44.552Z,20.39
2024-04-08T13:21:12.363Z,20.41
2024-04-08T13:23:40.498Z,20.43
2024-04-08T13:26:11.497Z,20.46
2024-04-08T13:28:38.283Z,20.48
2024-04-08T13:31:05.170Z,20.53
2024-04-08T13:33:32.207Z,20.60
2024-04-08T13:35:59.174Z,20.69
2024-04-08T13:38:26.010Z,20.75
2024-04-08T13:40:52.798Z,20.75
2024-04-08T13:43:20.136Z,20.73
2024-04-08T13:45:47.182Z,20.74
2024-04-08T13:48:14.549Z,20.79
2024-04-08T13:50:41.413Z,20.83
2024-04-08T13:53:09.080Z,20.85
2024-04-08T13:55:38.127Z,20.87
2024-04-08T13:58:06.214Z,20.91
2024-04-08T14:00:33.034Z,20.93
2024-04-08T14:02:59.898Z,20.88
2024-04-08T14:05:26.904Z,20.83
2024-04-08T14:07:53.667Z,20.81
2024-04-08T14:10:20.443Z,20.80
2024-04-08T14:12:47.237Z,20.77
2024-04-08T14:15:14.775Z,20.67
2024-04-08T14:17:41.767Z,20.61
2024-04-08T14:20:09.079Z,20.55
2024-04-08T14:22:38.622Z,20.47
2024-04-08T14:25:06.372Z,20.39
2024-04-08T14:27:33.116Z,20.30
2024-04-08T14:30:01.002Z,20.23
2024-04-08T14:32:28.514Z,20.12
2024-04-08T14:34:55.645Z,20.04
2024-04-08T14:37:36.456Z,19.98
2024-04-08T14:40:10.109Z,19.96
2024-04-08T14:42:37.225Z,19.88
2024-04-08T14:45:05.279Z,19.86
2024-04-08T14:47:32.645Z,19.94
2024-04-08T14:49:59.472Z,20.01
2024-04-08T14:52:33.255Z,20.09
2024-04-08T14:55:06.616Z,20.17
2024-04-08T14:57:33.583Z,20.21
2024-04-08T15:00:00.780Z,20.16
2024-04-08T15:02:27.961Z,20.15
2024-04-08T15:04:55.106Z,20.10
2024-04-08T15:07:27.675Z,20.05
2024-04-08T15:09:56.189Z,20.02
2024-04-08T15:12:23.164Z,20.03
2024-04-08T15:14:50.111Z,20.03
2024-04-08T15:17:18.708Z,20.01
2024-04-08T15:19:46.927Z,19.99
2024-04-08T15:22:16.752Z,19.95
2024-04-08T15:24:47.330Z,19.87
2024-04-08T15:27:14.398Z,19.79
2024-04-08T15:29:43.837Z,19.69
2024-04-08T15:32:12.808Z,19.59
2024-04-08T15:34:41.983Z,19.51
2024-04-08T15:37:10.801Z,19.44
2024-04-08T15:39:38.244Z,19.38
2024-04-08T15:42:05.403Z,19.33
2024-04-08T15:44:32.211Z,19.26
2024-04-08T15:46:59.046Z,19.24
2024-04-08T15:49:26.594Z,19.21
2024-04-08T15:51:57.482Z,19.12
2024-04-08T15:54:25.007Z,19.04
2024-04-08T15:56:54.662Z,18.98
2024-04-08T15:59:21.498Z,18.91
2024-04-08T16:01:48.814Z,18.80
2024-04-08T16:04:16.592Z,18.70
2024-04-08T16:06:43.769Z,18.60
2024-04-08T16:09:10.682Z,18.52
2024-04-08T16:11:37.617Z,18.39
2024-04-08T16:14:04.504Z,18.29
2024-04-08T16:16:31.487Z,18.22
2024-04-08T16:18:58.403Z,18.20
2024-04-08T16:21:25.875Z,18.16
2024-04-08T16:23:56.030Z,18.13
2024-04-08T16:26:24.623Z,18.09
2024-04-08T16:28:59.342Z,18.04
2024-04-08T16:31:31.782Z,17.95
2024-04-08T16:33:59.534Z,17.91
2024-04-08T16:36:29.167Z,17.89
2024-04-08T16:38:56.492Z,17.87
2024-04-08T16:41:23.401Z,17.84
2024-04-08T16:43:51.325Z,17.84
2024-04-08T16:46:19.904Z,17.84
2024-04-08T16:48:46.964Z,17.86
2024-04-08T16:51:15.018Z,17.87
2024-04-08T16:53:41.900Z,17.91
2024-04-08T16:56:09.013Z,17.93
2024-04-08T16:58:35.781Z,17.93
2024-04-08T17:01:02.554Z,17.90
2024-04-08T17:03:29.865Z,17.84
2024-04-08T17:06:04.728Z,17.82
2024-04-08T17:08:31.753Z,17.78
2024-04-08T17:11:02.501Z,17.74
2024-04-08T17:13:32.490Z,17.75
2024-04-08T17:15:59.516Z,17.84
2024-04-08T17:18:27.388Z,17.89
2024-04-08T17:20:58.949Z,17.86
2024-04-08T17:23:26.003Z,17.87
2024-04-08T17:25:57.200Z,17.84
2024-04-08T17:28:25.055Z,17.81
2024-04-08T17:30:54.388Z,17.79
2024-04-08T17:33:21.443Z,17.73
2024-04-08T17:35:56.316Z,17.69
2024-04-08T17:38:23.730Z,17.64
2024-04-08T17:41:08.592Z,17.58
2024-04-08T17:43:39.637Z,17.51
2024-04-08T17:46:08.291Z,17.48
2024-04-08T17:48:36.257Z,17.46
2024-04-08T17:51:05.078Z,17.37
2024-04-08T17:53:33.521Z,17.33
2024-04-08T17:56:12.573Z,17.24
2024-04-08T17:58:39.611Z,17.22
2024-04-08T18:01:16.621Z,17.13
2024-04-08T18:03:44.470Z,17.06
2024-04-08T18:06:12.339Z,16.98
2024-04-08T18:08:42.421Z,16.90
2024-04-08T18:11:11.871Z,16.83
2024-04-08T18:13:38.856Z,16.77
2024-04-08T18:16:08.235Z,16.69
2024-04-08T18:18:35.646Z,16.63
2024-04-08T18:21:06.976Z,16.58
2024-04-08T18:23:35.199Z,16.53
2024-04-08T18:26:04.330Z,16.43
2024-04-08T18:28:31.727Z,16.41
2024-04-08T18:31:01.532Z,16.34
2024-04-08T18:33:28.790Z,16.30
2024-04-08T18:35:55.753Z,16.26
2024-04-08T18:38:24.422Z,16.22
2024-04-08T18:40:51.236Z,16.19
2024-04-08T18:43:18.128Z,16.15
2024-04-08T18:45:48.143Z,16.14
2024-04-08T18:48:15.203Z,16.13
2024-04-08T18:50:42.002Z,16.12
2024-04-08T18:53:08.884Z,16.08
2024-04-08T18:55:35.647Z,16.05
2024-04-08T18:58:02.442Z,16.01
2024-04-08T19:00:29.849Z,15.98
2024-04-08T19:02:57.019Z,15.95
2024-04-08T19:05:25.387Z,15.90
2024-04-08T19:07:52.198Z,15.89
2024-04-08T19:10:21.273Z,15.87
2024-04-08T19:12:48.091Z,15.84
2024-04-08T19:15:15.026Z,15.81
2024-04-08T19:17:41.962Z,15.79
2024-04-08T19:20:09.181Z,15.79
2024-04-08T19:22:36.384Z,15.80
2024-04-08T19:25:06.107Z,15.75
2024-04-08T19:27:33.085Z,15.74
2024-04-08T19:29:59.972Z,15.71
2024-04-08T19:32:27.026Z,15.69
2024-04-08T19:34:53.749Z,15.69
2024-04-08T19:37:20.576Z,15.67
2024-04-08T19:39:50.828Z,15.68
2024-04-08T19:42:17.831Z,15.68
2024-04-08T19:44:44.560Z,15.68
2024-04-08T19:47:12.356Z,15.64
2024-04-08T19:49:39.923Z,15.64
2024-04-08T19:52:07.019Z,15.64
2024-04-08T19:54:34.002Z,15.63
2024-04-08T19:57:01.562Z,15.60
2024-04-08T19:59:28.640Z,15.61
2024-04-08T20:01:56.354Z,15.59
2024-04-08T20:04:23.502Z,15.62
2024-04-08T20:06:52.123Z,15.61
2024-04-08T20:09:19.593Z,15.60
2024-04-08T20:11:46.432Z,15.58
2024-04-08T20:14:13.160Z,15.56
2024-04-08T20:16:39.925Z,15.53
2024-04-08T20:19:06.916Z,15.54
2024-04-08T20:21:34.065Z,15.53
2024-04-08T20:24:00.898Z,15.52
2024-04-08T20:26:27.747Z,15.48
2024-04-08T20:28:54.536Z,15.48
2024-04-08T20:31:21.322Z,15.46
2024-04-08T20:33:50.273Z,15.43
2024-04-08T20:36:17.904Z,15.43
2024-04-08T20:38:46.167Z,15.40
2024-04-08T20:41:13.025Z,15.37
2024-04-08T20:43:41.627Z,15.35
2024-04-08T20:46:09.317Z,15.37
2024-04-08T20:48:36.896Z,15.33
2024-04-08T20:51:05.780Z,15.29
2024-04-08T20:53:33.712Z,15.29
2024-04-08T20:56:08.179Z,15.25
2024-04-08T20:58:35.330Z,15.25
2024-04-08T21:01:11.492Z,15.24
2024-04-08T21:03:39.878Z,15.23
2024-04-08T21:06:09.281Z,15.19
2024-04-08T21:08:38.091Z,15.14
2024-04-08T21:11:05.945Z,15.15
2024-04-08T21:13:36.543Z,15.13
2024-04-08T21:16:05.844Z,15.07
2024-04-08T21:18:34.386Z,15.09
2024-04-08T21:21:06.249Z,15.04
2024-04-08T21:23:35.414Z,14.99
2024-04-08T21:26:12.009Z,14.93
2024-04-08T21:28:39.080Z,14.89
2024-04-08T21:31:06.288Z,14.84
2024-04-08T21:33:37.064Z,14.78
2024-04-08T21:36:04.269Z,14.73
2024-04-08T21:38:31.135Z,14.70
2024-04-08T21:40:57.896Z,14.68
2024-04-08T21:43:24.996Z,14.66
2024-04-08T21:46:03.005Z,14.61
2024-04-08T21:48:31.580Z,14.55
2024-04-08T21:50:59.597Z,14.52
2024-04-08T21:53:30.683Z,14.50
2024-04-08T21:56:00.076Z,14.47
2024-04-08T21:58:27.780Z,14.46
2024-04-08T22:00:56.392Z,14.43
2024-04-08T22:03:25.101Z,14.39
2024-04-08T22:05:52.222Z,14.41
2024-04-08T22:08:19.140Z,14.41
2024-04-08T22:10:46.025Z,14.41
2024-04-08T22:13:13.249Z,14.42
2024-04-08T22:15:40.307Z,14.40
2024-04-08T22:18:08.703Z,14.41
2024-04-08T22:20:35.868Z,14.41
2024-04-08T22:23:08.834Z,14.42
2024-04-08T22:25:36.895Z,14.43
2024-04-08T22:28:05.164Z,14.42
2024-04-08T22:30:32.109Z,14.43
2024-04-08T22:32:59.233Z,14.40
2024-04-08T22:35:26.193Z,14.39
2024-04-08T22:37:55.474Z,14.37
2024-04-08T22:40:22.468Z,14.36
2024-04-08T22:42:50.302Z,14.37
2024-04-08T22:45:17.140Z,14.34
2024-04-08T22:47:44.364Z,14.29
2024-04-08T22:50:11.275Z,14.30
2024-04-08T22:52:38.095Z,14.27
2024-04-08T22:55:05.476Z,14.22
2024-04-08T22:57:33.230Z,14.17
2024-04-08T22:59:59.985Z,14.11
2024-04-08T23:02:26.777Z,14.06
2024-04-08T23:04:53.996Z,13.98
2024-04-08T23:07:20.752Z,13.91
2024-04-08T23:09:47.998Z,13.81
2024-04-08T23:12:14.802Z,13.77
2024-04-08T23:14:41.629Z,13.72
2024-04-08T23:17:08.377Z,13.63
2024-04-08T23:19:35.374Z,13.59
2024-04-08T23:22:02.245Z,13.54
2024-04-08T23:24:28.995Z,13.48
2024-04-08T23:26:56.253Z,13.42
2024-04-08T23:29:23.015Z,13.34
2024-04-08T23:31:49.774Z,13.28
2024-04-08T23:34:16.758Z,13.20
2024-04-08T23:36:43.644Z,13.13
2024-04-08T23:39:12.364Z,13.06
2024-04-08T23:41:40.017Z,13.02
2024-04-08T23:44:07.942Z,12.98
2024-04-08T23:46:34.933Z,12.92
2024-04-08T23:49:02.011Z,12.89
2024-04-08T23:51:28.783Z,12.84
2024-04-08T23:53:58.059Z,12.79
2024-04-08T23:56:25.133Z,12.79
2024-04-08T23:58:54.789Z,12.74
